sensor_id;sensor_type;location;lat;lon;timestamp;pressure;altitude;pressure_sealevel;temperature;humidity
69528;BME280;57136;51.986;4.468;2022-07-29T00:00:18;101916.38;;;16.92;76.98
69528;BME280;57136;51.986;4.468;2022-07-29T00:02:43;101912.00;;;16.88;76.70
69528;BME280;57136;51.986;4.468;2022-07-29T00:05:08;101914.63;;;16.89;77.06
69528;BME280;57136;51.986;4.468;2022-07-29T00:07:34;101910.28;;;16.79;77.24
69528;BME280;57136;51.986;4.468;2022-07-29T00:10:00;101904.13;;;16.85;77.07
69528;BME280;57136;51.986;4.468;2022-07-29T00:12:25;101904.13;;;16.83;77.23
69528;BME280;57136;51.986;4.468;2022-07-29T00:14:52;101900.63;;;16.81;77.63
69528;BME280;57136;51.986;4.468;2022-07-29T00:17:17;101894.53;;;16.68;77.65
69528;BME280;57136;51.986;4.468;2022-07-29T00:19:42;101899.84;;;16.63;78.18
69528;BME280;57136;51.986;4.468;2022-07-29T00:22:08;101899.00;;;16.57;78.43
69528;BME280;57136;51.986;4.468;2022-07-29T00:24:33;101900.69;;;16.70;78.44
69528;BME280;57136;51.986;4.468;2022-07-29T00:26:58;101893.69;;;16.63;78.54
69528;BME280;57136;51.986;4.468;2022-07-29T00:29:24;101896.34;;;16.58;78.68
69528;BME280;57136;51.986;4.468;2022-07-29T00:31:50;101894.59;;;16.57;78.59
69528;BME280;57136;51.986;4.468;2022-07-29T00:34:15;101897.25;;;16.56;78.70
69528;BME280;57136;51.986;4.468;2022-07-29T00:36:59;101891.09;;;16.49;79.44
69528;BME280;57136;51.986;4.468;2022-07-29T00:39:24;101892.88;;;16.48;79.08
69528;BME280;57136;51.986;4.468;2022-07-29T00:41:50;101893.72;;;16.57;78.92
69528;BME280;57136;51.986;4.468;2022-07-29T00:44:15;101886.72;;;16.45;79.42
69528;BME280;57136;51.986;4.468;2022-07-29T00:46:41;101886.75;;;16.43;79.92
69528;BME280;57136;51.986;4.468;2022-07-29T00:49:06;101886.78;;;16.39;79.94
69528;BME280;57136;51.986;4.468;2022-07-29T00:51:37;101877.06;;;16.47;79.44
69528;BME280;57136;51.986;4.468;2022-07-29T00:54:04;101883.25;;;16.38;79.70
69528;BME280;57136;51.986;4.468;2022-07-29T00:56:30;101883.25;;;16.41;79.90
69528;BME280;57136;51.986;4.468;2022-07-29T00:58:57;101886.72;;;16.48;79.60
69528;BME280;57136;51.986;4.468;2022-07-29T01:01:23;101881.47;;;16.53;79.52
69528;BME280;57136;51.986;4.468;2022-07-29T01:03:48;101872.72;;;16.40;79.57
69528;BME280;57136;51.986;4.468;2022-07-29T01:06:15;101881.50;;;16.40;79.99
69528;BME280;57136;51.986;4.468;2022-07-29T01:08:42;101877.13;;;16.33;80.65
69528;BME280;57136;51.986;4.468;2022-07-29T01:11:07;101878.88;;;16.31;80.83
69528;BME280;57136;51.986;4.468;2022-07-29T01:13:33;101876.25;;;16.26;80.87
69528;BME280;57136;51.986;4.468;2022-07-29T01:16:06;101871.00;;;16.29;80.85
69528;BME280;57136;51.986;4.468;2022-07-29T01:18:39;101879.78;;;16.28;81.35
69528;BME280;57136;51.986;4.468;2022-07-29T01:21:21;101870.13;;;16.27;81.39
69528;BME280;57136;51.986;4.468;2022-07-29T01:37:29;101875.44;;;16.12;82.77
69528;BME280;57136;51.986;4.468;2022-07-29T01:39:56;101864.03;;;16.11;83.06
69528;BME280;57136;51.986;4.468;2022-07-29T01:42:35;101864.94;;;16.06;83.24
69528;BME280;57136;51.986;4.468;2022-07-29T01:45:12;101862.28;;;16.04;83.55
69528;BME280;57136;51.986;4.468;2022-07-29T01:48:13;101864.94;;;15.99;83.56
69528;BME280;57136;51.986;4.468;2022-07-29T01:50:47;101854.41;;;16.04;83.59
69528;BME280;57136;51.986;4.468;2022-07-29T01:53:16;101857.91;;;16.01;83.63
69528;BME280;57136;51.986;4.468;2022-07-29T01:55:47;101852.66;;;16.01;84.29
69528;BME280;57136;51.986;4.468;2022-07-29T01:58:14;101843.03;;;15.99;83.86
69528;BME280;57136;51.986;4.468;2022-07-29T02:00:41;101851.81;;;15.95;84.13
69528;BME280;57136;51.986;4.468;2022-07-29T02:03:11;101848.31;;;15.96;84.17
69528;BME280;57136;51.986;4.468;2022-07-29T02:05:39;101850.06;;;16.00;84.31
69528;BME280;57136;51.986;4.468;2022-07-29T02:08:07;101849.19;;;15.87;84.70
69528;BME280;57136;51.986;4.468;2022-07-29T02:10:34;101845.66;;;15.85;84.57
69528;BME280;57136;51.986;4.468;2022-07-29T02:13:02;101843.03;;;15.86;84.94
69528;BME280;57136;51.986;4.468;2022-07-29T02:15:30;101836.03;;;15.95;84.42
69528;BME280;57136;51.986;4.468;2022-07-29T02:18:02;101843.91;;;15.95;85.11
69528;BME280;57136;51.986;4.468;2022-07-29T02:20:30;101844.78;;;15.78;85.04
69528;BME280;57136;51.986;4.468;2022-07-29T02:22:58;101841.25;;;15.82;85.33
69528;BME280;57136;51.986;4.468;2022-07-29T02:25:25;101839.50;;;15.81;85.19
69528;BME280;57136;51.986;4.468;2022-07-29T02:27:52;101841.28;;;15.84;85.04
69528;BME280;57136;51.986;4.468;2022-07-29T02:30:20;101836.91;;;15.73;85.27
69528;BME280;57136;51.986;4.468;2022-07-29T02:32:47;101837.75;;;15.77;85.53
69528;BME280;57136;51.986;4.468;2022-07-29T02:35:14;101842.16;;;15.80;85.55
69528;BME280;57136;51.986;4.468;2022-07-29T02:37:43;101839.50;;;15.78;85.72
69528;BME280;57136;51.986;4.468;2022-07-29T02:40:11;101835.16;;;15.76;85.46
69528;BME280;57136;51.986;4.468;2022-07-29T02:42:41;101840.38;;;15.77;85.21
69528;BME280;57136;51.986;4.468;2022-07-29T02:45:07;101836.91;;;15.73;85.88
69528;BME280;57136;51.986;4.468;2022-07-29T02:47:40;101837.78;;;15.68;85.70
69528;BME280;57136;51.986;4.468;2022-07-29T02:50:15;101826.41;;;15.66;85.89
69528;BME280;57136;51.986;4.468;2022-07-29T02:53:00;101824.63;;;15.63;85.65
69528;BME280;57136;51.986;4.468;2022-07-29T02:55:35;101832.53;;;15.58;85.75
69528;BME280;57136;51.986;4.468;2022-07-29T03:00:38;101827.25;;;15.49;86.49
69528;BME280;57136;51.986;4.468;2022-07-29T03:03:08;101829.91;;;15.58;86.23
69528;BME280;57136;51.986;4.468;2022-07-29T03:05:36;101827.28;;;15.65;85.98
69528;BME280;57136;51.986;4.468;2022-07-29T03:08:04;101829.03;;;15.58;86.54
69528;BME280;57136;51.986;4.468;2022-07-29T03:10:30;101829.91;;;15.43;86.68
69528;BME280;57136;51.986;4.468;2022-07-29T03:12:56;101822.91;;;15.47;86.71
69528;BME280;57136;51.986;4.468;2022-07-29T03:15:22;101823.78;;;15.49;86.83
69528;BME280;57136;51.986;4.468;2022-07-29T03:17:49;101832.53;;;15.49;86.78
69528;BME280;57136;51.986;4.468;2022-07-29T03:20:15;101826.41;;;15.55;86.50
69528;BME280;57136;51.986;4.468;2022-07-29T03:22:42;101830.81;;;15.45;86.92
69528;BME280;57136;51.986;4.468;2022-07-29T03:25:12;101825.53;;;15.40;87.16
69528;BME280;57136;51.986;4.468;2022-07-29T03:27:38;101827.28;;;15.43;86.88
69528;BME280;57136;51.986;4.468;2022-07-29T03:30:04;101823.78;;;15.41;87.30
69528;BME280;57136;51.986;4.468;2022-07-29T03:32:30;101821.13;;;15.36;87.06
69528;BME280;57136;51.986;4.468;2022-07-29T03:34:55;101821.16;;;15.35;87.00
69528;BME280;57136;51.986;4.468;2022-07-29T03:37:21;101824.66;;;15.45;86.96
69528;BME280;57136;51.986;4.468;2022-07-29T03:39:47;101824.66;;;15.40;87.33
69528;BME280;57136;51.986;4.468;2022-07-29T03:42:15;101825.53;;;15.39;87.50
69528;BME280;57136;51.986;4.468;2022-07-29T03:44:43;101823.78;;;15.47;87.19
69528;BME280;57136;51.986;4.468;2022-07-29T03:47:09;101823.78;;;15.41;87.72
69528;BME280;57136;51.986;4.468;2022-07-29T03:49:36;101824.66;;;15.31;87.64
69528;BME280;57136;51.986;4.468;2022-07-29T03:52:03;101829.88;;;15.35;87.51
69528;BME280;57136;51.986;4.468;2022-07-29T03:54:29;101822.91;;;15.39;87.96
69528;BME280;57136;51.986;4.468;2022-07-29T03:56:57;101816.78;;;15.43;87.60
69528;BME280;57136;51.986;4.468;2022-07-29T03:59:24;101811.53;;;15.31;87.54
69528;BME280;57136;51.986;4.468;2022-07-29T04:01:51;101821.16;;;15.33;87.95
69528;BME280;57136;51.986;4.468;2022-07-29T04:04:17;101828.16;;;15.22;88.00
69528;BME280;57136;51.986;4.468;2022-07-29T04:06:44;101818.53;;;15.35;87.54
69528;BME280;57136;51.986;4.468;2022-07-29T04:09:10;101820.28;;;15.28;87.92
69528;BME280;57136;51.986;4.468;2022-07-29T04:11:37;101822.88;;;15.23;88.07
69528;BME280;57136;51.986;4.468;2022-07-29T04:14:03;101825.53;;;15.26;87.74
69528;BME280;57136;51.986;4.468;2022-07-29T04:16:28;101828.16;;;15.25;87.38
69528;BME280;57136;51.986;4.468;2022-07-29T04:18:54;101824.63;;;15.24;87.56
69528;BME280;57136;51.986;4.468;2022-07-29T04:21:19;101825.53;;;15.30;87.87
69528;BME280;57136;51.986;4.468;2022-07-29T04:23:44;101824.66;;;15.27;88.03
69528;BME280;57136;51.986;4.468;2022-07-29T04:26:14;101826.41;;;15.32;87.59
69528;BME280;57136;51.986;4.468;2022-07-29T04:28:39;101822.03;;;15.29;87.67
69528;BME280;57136;51.986;4.468;2022-07-29T04:31:05;101823.78;;;15.27;87.53
69528;BME280;57136;51.986;4.468;2022-07-29T04:33:30;101821.16;;;15.21;88.24
69528;BME280;57136;51.986;4.468;2022-07-29T04:35:56;101815.88;;;15.28;87.49
69528;BME280;57136;51.986;4.468;2022-07-29T04:38:21;101815.00;;;15.26;87.69
69528;BME280;57136;51.986;4.468;2022-07-29T04:40:47;101815.00;;;15.34;87.33
69528;BME280;57136;51.986;4.468;2022-07-29T04:43:12;101827.25;;;15.24;87.22
69528;BME280;57136;51.986;4.468;2022-07-29T04:45:37;101823.78;;;15.35;87.63
69528;BME280;57136;51.986;4.468;2022-07-29T04:48:03;101821.16;;;15.33;87.21
69528;BME280;57136;51.986;4.468;2022-07-29T04:50:29;101822.88;;;15.23;87.61
69528;BME280;57136;51.986;4.468;2022-07-29T04:52:54;101822.03;;;15.37;87.04
69528;BME280;57136;51.986;4.468;2022-07-29T04:55:19;101819.38;;;15.24;87.36
69528;BME280;57136;51.986;4.468;2022-07-29T04:57:45;101817.63;;;15.34;86.58
69528;BME280;57136;51.986;4.468;2022-07-29T05:00:11;101814.16;;;15.32;86.73
69528;BME280;57136;51.986;4.468;2022-07-29T05:02:36;101815.03;;;15.36;86.85
69528;BME280;57136;51.986;4.468;2022-07-29T05:05:02;101822.03;;;15.46;86.12
69528;BME280;57136;51.986;4.468;2022-07-29T05:07:27;101828.16;;;15.47;86.08
69528;BME280;57136;51.986;4.468;2022-07-29T05:09:52;101827.28;;;15.43;85.99
69528;BME280;57136;51.986;4.468;2022-07-29T05:12:18;101830.78;;;15.40;85.81
69528;BME280;57136;51.986;4.468;2022-07-29T05:14:43;101831.66;;;15.53;85.63
69528;BME280;57136;51.986;4.468;2022-07-29T05:17:09;101828.16;;;15.57;85.44
69528;BME280;57136;51.986;4.468;2022-07-29T05:19:34;101833.38;;;15.62;84.45
69528;BME280;57136;51.986;4.468;2022-07-29T05:21:59;101830.78;;;15.95;84.13
69528;BME280;57136;51.986;4.468;2022-07-29T05:24:25;101832.53;;;16.02;83.07
69528;BME280;57136;51.986;4.468;2022-07-29T05:26:50;101835.13;;;16.10;82.21
69528;BME280;57136;51.986;4.468;2022-07-29T05:29:16;101844.66;;;16.40;81.54
69528;BME280;57136;51.986;4.468;2022-07-29T05:31:41;101847.25;;;16.50;80.41
69528;BME280;57136;51.986;4.468;2022-07-29T05:34:06;101848.00;;;16.80;79.38
69528;BME280;57136;51.986;4.468;2022-07-29T05:36:32;101844.53;;;16.68;77.89
69528;BME280;57136;51.986;4.468;2022-07-29T05:38:57;101846.22;;;16.85;78.46
69528;BME280;57136;51.986;4.468;2022-07-29T05:41:22;101841.63;;;17.19;76.98
69528;BME280;57136;51.986;4.468;2022-07-29T05:43:48;101847.66;;;17.35;76.20
69528;BME280;57136;51.986;4.468;2022-07-29T05:46:13;101846.16;;;17.00;76.24
69528;BME280;57136;51.986;4.468;2022-07-29T05:48:41;101845.28;;;16.89;76.83
69528;BME280;57136;51.986;4.468;2022-07-29T05:51:06;101851.44;;;16.88;76.55
69528;BME280;57136;51.986;4.468;2022-07-29T05:53:32;101853.16;;;16.95;76.68
69528;BME280;57136;51.986;4.468;2022-07-29T05:55:57;101851.31;;;17.16;76.53
69528;BME280;57136;51.986;4.468;2022-07-29T05:58:23;101853.78;;;17.36;75.70
69528;BME280;57136;51.986;4.468;2022-07-29T06:00:48;101854.34;;;17.74;73.90
69528;BME280;57136;51.986;4.468;2022-07-29T06:03:13;101848.69;;;18.16;71.48
69528;BME280;57136;51.986;4.468;2022-07-29T06:05:39;101847.97;;;17.98;71.21
69528;BME280;57136;51.986;4.468;2022-07-29T06:08:04;101857.06;;;17.66;72.79
69528;BME280;57136;51.986;4.468;2022-07-29T06:10:32;101854.38;;;17.75;73.88
69528;BME280;57136;51.986;4.468;2022-07-29T06:12:59;101854.38;;;17.72;72.13
69528;BME280;57136;51.986;4.468;2022-07-29T06:15:24;101847.91;;;18.09;72.01
69528;BME280;57136;51.986;4.468;2022-07-29T06:17:49;101847.78;;;18.20;71.60
69528;BME280;57136;51.986;4.468;2022-07-29T06:20:14;101851.97;;;18.38;69.99
69528;BME280;57136;51.986;4.468;2022-07-29T06:22:40;101848.34;;;18.48;70.14
69528;BME280;57136;51.986;4.468;2022-07-29T06:25:06;101848.53;;;18.30;69.91
69528;BME280;57136;51.986;4.468;2022-07-29T06:27:32;101852.78;;;18.43;70.17
69528;BME280;57136;51.986;4.468;2022-07-29T06:29:57;101853.75;;;18.37;70.70
69528;BME280;57136;51.986;4.468;2022-07-29T06:32:22;101857.47;;;18.19;70.69
69528;BME280;57136;51.986;4.468;2022-07-29T06:34:47;101865.19;;;18.36;70.33
69528;BME280;57136;51.986;4.468;2022-07-29T06:37:13;101864.28;;;18.39;71.49
69528;BME280;57136;51.986;4.468;2022-07-29T06:39:39;101857.59;;;18.08;71.43
69528;BME280;57136;51.986;4.468;2022-07-29T06:42:04;101860.09;;;18.19;70.62
69528;BME280;57136;51.986;4.468;2022-07-29T06:44:30;101857.19;;;18.44;69.89
69528;BME280;57136;51.986;4.468;2022-07-29T06:46:56;101867.38;;;18.70;67.68
69528;BME280;57136;51.986;4.468;2022-07-29T06:49:21;101871.78;;;18.73;68.58
69528;BME280;57136;51.986;4.468;2022-07-29T06:51:48;101876.28;;;19.29;66.70
69528;BME280;57136;51.986;4.468;2022-07-29T06:54:13;101869.69;;;19.00;67.61
69528;BME280;57136;51.986;4.468;2022-07-29T06:56:39;101866.91;;;19.09;66.51
69528;BME280;57136;51.986;4.468;2022-07-29T06:59:07;101875.81;;;19.02;66.79
69528;BME280;57136;51.986;4.468;2022-07-29T07:01:35;101868.16;;;18.80;67.15
69528;BME280;57136;51.986;4.468;2022-07-29T07:04:00;101871.47;;;18.98;67.44
69528;BME280;57136;51.986;4.468;2022-07-29T07:06:26;101873.34;;;18.88;66.42
69528;BME280;57136;51.986;4.468;2022-07-29T07:08:51;101874.13;;;18.95;68.54
69528;BME280;57136;51.986;4.468;2022-07-29T07:11:17;101875.66;;;19.11;67.40
69528;BME280;57136;51.986;4.468;2022-07-29T07:13:42;101875.91;;;18.93;66.40
69528;BME280;57136;51.986;4.468;2022-07-29T07:16:07;101877.75;;;18.84;67.55
69528;BME280;57136;51.986;4.468;2022-07-29T07:18:33;101883.38;;;18.60;67.71
69528;BME280;57136;51.986;4.468;2022-07-29T07:20:58;101881.72;;;18.51;67.79
69528;BME280;57136;51.986;4.468;2022-07-29T07:23:23;101885.19;;;18.54;68.81
69528;BME280;57136;51.986;4.468;2022-07-29T07:25:49;101883.31;;;18.66;68.13
69528;BME280;57136;51.986;4.468;2022-07-29T07:28:15;101887.81;;;18.54;69.39
69528;BME280;57136;51.986;4.468;2022-07-29T07:30:40;101888.50;;;18.72;69.25
69528;BME280;57136;51.986;4.468;2022-07-29T07:33:06;101888.63;;;18.64;69.29
69528;BME280;57136;51.986;4.468;2022-07-29T07:35:31;101892.13;;;18.65;68.56
69528;BME280;57136;51.986;4.468;2022-07-29T07:37:57;101883.00;;;18.87;67.11
69528;BME280;57136;51.986;4.468;2022-07-29T07:40:22;101889.31;;;19.41;67.64
69528;BME280;57136;51.986;4.468;2022-07-29T07:42:47;101893.84;;;19.86;65.73
69528;BME280;57136;51.986;4.468;2022-07-29T07:45:13;101892.66;;;20.06;63.76
69528;BME280;57136;51.986;4.468;2022-07-29T07:47:38;101898.50;;;20.24;63.24
69528;BME280;57136;51.986;4.468;2022-07-29T07:50:09;101892.81;;;20.44;61.98
69528;BME280;57136;51.986;4.468;2022-07-29T07:52:46;101893.63;;;20.00;63.01
69528;BME280;57136;51.986;4.468;2022-07-29T07:55:11;101894.09;;;19.72;64.15
69528;BME280;57136;51.986;4.468;2022-07-29T07:57:37;101889.34;;;19.95;64.61
69528;BME280;57136;51.986;4.468;2022-07-29T08:00:03;101881.72;;;19.74;64.22
69528;BME280;57136;51.986;4.468;2022-07-29T08:02:29;101880.44;;;19.99;65.34
69528;BME280;57136;51.986;4.468;2022-07-29T08:04:54;101878.41;;;20.13;64.82
69528;BME280;57136;51.986;4.468;2022-07-29T08:07:20;101875.19;;;20.43;63.29
69528;BME280;57136;51.986;4.468;2022-07-29T08:09:45;101876.94;;;20.88;62.01
69528;BME280;57136;51.986;4.468;2022-07-29T08:12:10;101879.13;;;21.46;58.54
69528;BME280;57136;51.986;4.468;2022-07-29T08:14:36;101874.78;;;21.78;57.14
69528;BME280;57136;51.986;4.468;2022-07-29T08:17:01;101880.97;;;21.78;57.37
69528;BME280;57136;51.986;4.468;2022-07-29T08:19:27;101893.41;;;21.76;56.61
69528;BME280;57136;51.986;4.468;2022-07-29T08:24:18;101881.53;;;22.23;55.19
69528;BME280;57136;51.986;4.468;2022-07-29T08:27:02;101884.44;;;22.47;53.29
69528;BME280;57136;51.986;4.468;2022-07-29T08:29:27;101891.19;;;23.45;52.14
69528;BME280;57136;51.986;4.468;2022-07-29T08:31:53;101885.00;;;23.72;51.52
69528;BME280;57136;51.986;4.468;2022-07-29T08:34:18;101886.28;;;24.12;50.76
69528;BME280;57136;51.986;4.468;2022-07-29T08:36:43;101892.69;;;23.81;50.33
69528;BME280;57136;51.986;4.468;2022-07-29T08:39:09;101880.09;;;24.59;50.35
69528;BME280;57136;51.986;4.468;2022-07-29T08:41:35;101884.47;;;24.62;48.64
69528;BME280;57136;51.986;4.468;2022-07-29T08:44:00;101887.19;;;24.60;47.28
69528;BME280;57136;51.986;4.468;2022-07-29T08:46:25;101884.78;;;24.78;47.46
69528;BME280;57136;51.986;4.468;2022-07-29T08:48:51;101884.41;;;25.54;46.94
69528;BME280;57136;51.986;4.468;2022-07-29T08:51:20;101887.78;;;25.15;46.07
69528;BME280;57136;51.986;4.468;2022-07-29T08:53:48;101884.00;;;24.74;46.67
69528;BME280;57136;51.986;4.468;2022-07-29T08:56:15;101883.53;;;24.87;48.66
69528;BME280;57136;51.986;4.468;2022-07-29T08:58:43;101881.75;;;24.39;49.11
69528;BME280;57136;51.986;4.468;2022-07-29T09:01:10;101890.34;;;24.72;49.50
69528;BME280;57136;51.986;4.468;2022-07-29T09:03:37;101889.72;;;24.87;48.55
69528;BME280;57136;51.986;4.468;2022-07-29T09:06:05;101886.16;;;25.10;47.67
69528;BME280;57136;51.986;4.468;2022-07-29T09:08:32;101882.06;;;25.02;48.07
69528;BME280;57136;51.986;4.468;2022-07-29T09:10:57;101878.47;;;25.03;48.06
69528;BME280;57136;51.986;4.468;2022-07-29T09:13:24;101885.84;;;25.18;47.35
69528;BME280;57136;51.986;4.468;2022-07-29T09:15:50;101879.59;;;25.19;46.87
69528;BME280;57136;51.986;4.468;2022-07-29T09:18:38;101872.34;;;26.66;45.18
69528;BME280;57136;51.986;4.468;2022-07-29T09:21:06;101870.03;;;26.97;44.09
69528;BME280;57136;51.986;4.468;2022-07-29T09:24:07;101871.03;;;26.56;46.09
69528;BME280;57136;51.986;4.468;2022-07-29T09:26:36;101874.00;;;26.50;45.55
69528;BME280;57136;51.986;4.468;2022-07-29T09:29:12;101872.72;;;26.97;44.20
69528;BME280;57136;51.986;4.468;2022-07-29T09:31:40;101879.63;;;26.03;45.20
69528;BME280;57136;51.986;4.468;2022-07-29T09:34:06;101878.47;;;25.47;46.83
69528;BME280;57136;51.986;4.468;2022-07-29T09:36:52;101855.19;;;26.13;51.75
69528;BME280;57136;51.986;4.468;2022-07-29T09:39:37;101869.66;;;25.45;46.43
69528;BME280;57136;51.986;4.468;2022-07-29T09:42:09;101875.00;;;25.23;46.80
69528;BME280;57136;51.986;4.468;2022-07-29T09:44:49;101876.56;;;25.71;45.78
69528;BME280;57136;51.986;4.468;2022-07-29T09:47:18;101872.81;;;26.17;43.12
69528;BME280;57136;51.986;4.468;2022-07-29T09:52:15;101874.16;;;25.65;44.58
69528;BME280;57136;51.986;4.468;2022-07-29T09:54:41;101872.94;;;25.07;45.00
69528;BME280;57136;51.986;4.468;2022-07-29T09:57:08;101872.34;;;25.01;45.42
69528;BME280;57136;51.986;4.468;2022-07-29T09:59:37;101874.22;;;24.97;45.07
69528;BME280;57136;51.986;4.468;2022-07-29T10:02:11;101868.34;;;26.37;44.29
69528;BME280;57136;51.986;4.468;2022-07-29T10:04:41;101875.28;;;25.60;45.81
69528;BME280;57136;51.986;4.468;2022-07-29T10:07:08;101871.53;;;24.98;46.14
69528;BME280;57136;51.986;4.468;2022-07-29T10:09:35;101874.66;;;25.53;46.68
69528;BME280;57136;51.986;4.468;2022-07-29T10:12:10;101863.25;;;26.51;47.07
69528;BME280;57136;51.986;4.468;2022-07-29T10:14:37;101862.38;;;27.26;43.36
69528;BME280;57136;51.986;4.468;2022-07-29T10:17:03;101865.34;;;27.02;41.91
69528;BME280;57136;51.986;4.468;2022-07-29T10:19:29;101862.75;;;27.00;42.94
69528;BME280;57136;51.986;4.468;2022-07-29T10:22:00;101859.34;;;27.69;42.78
69528;BME280;57136;51.986;4.468;2022-07-29T10:24:26;101867.06;;;27.75;39.79
69528;BME280;57136;51.986;4.468;2022-07-29T10:26:55;101866.72;;;26.72;42.74
69528;BME280;57136;51.986;4.468;2022-07-29T10:29:21;101866.66;;;26.93;42.28
69528;BME280;57136;51.986;4.468;2022-07-29T10:34:33;101860.56;;;28.48;40.68
69528;BME280;57136;51.986;4.468;2022-07-29T10:37:11;101863.41;;;28.61;39.34
69528;BME280;57136;51.986;4.468;2022-07-29T10:42:28;101852.84;;;27.90;38.84
69528;BME280;57136;51.986;4.468;2022-07-29T10:44:55;101853.59;;;27.76;40.30
69528;BME280;57136;51.986;4.468;2022-07-29T10:47:22;101854.88;;;27.69;39.21
69528;BME280;57136;51.986;4.468;2022-07-29T10:49:56;101856.81;;;27.30;41.00
69528;BME280;57136;51.986;4.468;2022-07-29T10:52:22;101845.22;;;27.30;40.53
69528;BME280;57136;51.986;4.468;2022-07-29T10:54:49;101851.06;;;27.91;39.67
69528;BME280;57136;51.986;4.468;2022-07-29T10:57:24;101848.53;;;27.17;40.19
69528;BME280;57136;51.986;4.468;2022-07-29T11:05:12;101843.00;;;27.57;40.30
69528;BME280;57136;51.986;4.468;2022-07-29T11:08:01;101844.97;;;27.17;39.94
69528;BME280;57136;51.986;4.468;2022-07-29T11:10:24;101839.75;;;26.96;39.87
69528;BME280;57136;51.986;4.468;2022-07-29T11:12:49;101841.38;;;26.81;39.69
69528;BME280;57136;51.986;4.468;2022-07-29T11:15:18;101845.09;;;26.96;38.62
69528;BME280;57136;51.986;4.468;2022-07-29T11:23:01;101839.75;;;26.39;38.79
69528;BME280;57136;51.986;4.468;2022-07-29T11:25:26;101835.16;;;27.17;38.77
69528;BME280;57136;51.986;4.468;2022-07-29T11:27:54;101830.78;;;28.03;38.05
69528;BME280;57136;51.986;4.468;2022-07-29T11:30:20;101831.03;;;28.32;38.43
69528;BME280;57136;51.986;4.468;2022-07-29T11:32:45;101844.53;;;28.46;36.59
69528;BME280;57136;51.986;4.468;2022-07-29T11:35:22;101825.94;;;28.59;37.44
69528;BME280;57136;51.986;4.468;2022-07-29T11:38:26;101834.34;;;28.37;37.11
69528;BME280;57136;51.986;4.468;2022-07-29T11:43:55;101836.53;;;26.51;39.14
69528;BME280;57136;51.986;4.468;2022-07-29T11:46:44;101839.19;;;26.70;38.16
69528;BME280;57136;51.986;4.468;2022-07-29T11:49:19;101834.28;;;27.34;35.38
69528;BME280;57136;51.986;4.468;2022-07-29T11:51:51;101834.41;;;27.50;35.27
69528;BME280;57136;51.986;4.468;2022-07-29T11:54:23;101833.63;;;27.66;37.05
69528;BME280;57136;51.986;4.468;2022-07-29T11:56:50;101842.03;;;26.86;36.77
69528;BME280;57136;51.986;4.468;2022-07-29T11:59:17;101839.75;;;26.77;37.80
69528;BME280;57136;51.986;4.468;2022-07-29T12:01:59;101828.41;;;27.45;37.01
69528;BME280;57136;51.986;4.468;2022-07-29T12:04:25;101834.53;;;27.47;37.59
69528;BME280;57136;51.986;4.468;2022-07-29T12:06:52;101833.19;;;27.03;39.36
69528;BME280;57136;51.986;4.468;2022-07-29T12:09:18;101827.44;;;27.11;38.42
69528;BME280;57136;51.986;4.468;2022-07-29T12:11:45;101838.91;;;26.57;38.93
69528;BME280;57136;51.986;4.468;2022-07-29T12:14:44;101839.34;;;26.86;39.22
69528;BME280;57136;51.986;4.468;2022-07-29T12:17:29;101844.69;;;26.48;40.19
69528;BME280;57136;51.986;4.468;2022-07-29T12:19:55;101842.28;;;26.61;39.93
69528;BME280;57136;51.986;4.468;2022-07-29T12:22:27;101845.91;;;26.79;40.10
69528;BME280;57136;51.986;4.468;2022-07-29T12:24:54;101842.69;;;27.09;39.73
69528;BME280;57136;51.986;4.468;2022-07-29T12:27:20;101843.75;;;27.77;39.21
69528;BME280;57136;51.986;4.468;2022-07-29T12:30:05;101842.09;;;27.92;37.03
69528;BME280;57136;51.986;4.468;2022-07-29T12:32:39;101841.09;;;26.87;38.87
69528;BME280;57136;51.986;4.468;2022-07-29T12:35:07;101842.50;;;25.97;40.81
69528;BME280;57136;51.986;4.468;2022-07-29T12:37:38;101843.31;;;25.99;41.96
69528;BME280;57136;51.986;4.468;2022-07-29T12:40:05;101839.50;;;26.83;40.61
69528;BME280;57136;51.986;4.468;2022-07-29T12:42:31;101841.56;;;26.96;41.16
69528;BME280;57136;51.986;4.468;2022-07-29T12:44:57;101846.13;;;27.30;42.54
69528;BME280;57136;51.986;4.468;2022-07-29T12:47:23;101856.13;;;27.44;39.10
69528;BME280;57136;51.986;4.468;2022-07-29T12:49:49;101845.47;;;27.43;40.42
69528;BME280;57136;51.986;4.468;2022-07-29T12:52:33;101835.44;;;27.48;38.77
69528;BME280;57136;51.986;4.468;2022-07-29T12:54:59;101843.31;;;27.51;38.35
69528;BME280;57136;51.986;4.468;2022-07-29T12:57:26;101838.03;;;27.67;38.88
69528;BME280;57136;51.986;4.468;2022-07-29T13:00:08;101840.50;;;27.88;39.40
69528;BME280;57136;51.986;4.468;2022-07-29T13:02:35;101840.03;;;27.97;38.50
69528;BME280;57136;51.986;4.468;2022-07-29T13:05:01;101840.81;;;28.33;37.17
69528;BME280;57136;51.986;4.468;2022-07-29T13:07:28;101832.00;;;28.31;36.99
69528;BME280;57136;51.986;4.468;2022-07-29T13:10:13;101830.69;;;28.22;37.56
69528;BME280;57136;51.986;4.468;2022-07-29T13:13:09;101837.19;;;27.30;39.46
69528;BME280;57136;51.986;4.468;2022-07-29T13:15:38;101843.84;;;27.58;39.97
69528;BME280;57136;51.986;4.468;2022-07-29T13:18:05;101849.19;;;27.58;38.92
69528;BME280;57136;51.986;4.468;2022-07-29T13:20:31;101841.63;;;27.84;39.23
69528;BME280;57136;51.986;4.468;2022-07-29T13:22:57;101847.94;;;27.65;38.21
69528;BME280;57136;51.986;4.468;2022-07-29T13:25:32;101849.34;;;27.55;39.17
69528;BME280;57136;51.986;4.468;2022-07-29T13:27:59;101857.69;;;27.48;37.55
69528;BME280;57136;51.986;4.468;2022-07-29T13:30:25;101851.19;;;28.23;37.21
69528;BME280;57136;51.986;4.468;2022-07-29T13:32:51;101843.19;;;28.55;35.41
69528;BME280;57136;51.986;4.468;2022-07-29T13:35:17;101837.44;;;28.61;35.10